createdAt,value
2019-03-13T00:00:54.310Z,7.00
2019-03-13T00:03:25.891Z,7.00
2019-03-13T00:05:56.642Z,7.00
2019-03-13T00:08:28.240Z,7.00
2019-03-13T00:10:58.812Z,7.00
2019-03-13T00:13:29.314Z,7.10
2019-03-13T00:15:59.886Z,7.10
2019-03-13T00:18:30.468Z,7.10
2019-03-13T00:21:00.979Z,7.00
2019-03-13T00:23:31.543Z,7.00
2019-03-13T00:26:02.068Z,7.00
2019-03-13T00:28:32.628Z,7.00
2019-03-13T00:31:03.403Z,7.00
2019-03-13T00:33:33.959Z,7.00
2019-03-13T00:36:04.701Z,7.00
2019-03-13T00:38:35.181Z,7.00
2019-03-13T00:41:05.776Z,7.00
2019-03-13T00:43:36.247Z,7.10
2019-03-13T00:46:07.913Z,7.10
2019-03-13T00:48:38.476Z,7.00
2019-03-13T00:51:08.945Z,7.10
2019-03-13T00:53:39.576Z,7.10
2019-03-13T00:56:10.087Z,7.10
2019-03-13T00:58:40.625Z,7.10
2019-03-13T01:04:08.951Z,7.20
2019-03-13T01:06:42.292Z,7.30
2019-03-13T01:09:12.840Z,7.30
2019-03-13T01:11:43.860Z,7.20
2019-03-13T01:14:14.597Z,7.30
2019-03-13T01:16:45.197Z,7.30
2019-03-13T01:19:15.788Z,7.40
2019-03-13T01:21:46.364Z,7.40
2019-03-13T01:24:16.928Z,7.40
2019-03-13T01:26:47.560Z,7.40
2019-03-13T01:29:18.069Z,7.40
2019-03-13T01:32:10.558Z,7.30
2019-03-13T01:34:47.545Z,7.30
2019-03-13T01:37:18.140Z,7.40
2019-03-13T01:39:48.714Z,7.40
2019-03-13T01:42:19.287Z,7.40
2019-03-13T01:44:49.933Z,7.40
2019-03-13T01:47:20.528Z,7.50
2019-03-13T01:49:51.050Z,7.50
2019-03-13T01:52:21.563Z,7.50
2019-03-13T01:54:52.023Z,7.50
2019-03-13T01:57:22.575Z,7.50
2019-03-13T01:59:53.064Z,7.50
2019-03-13T02:02:23.639Z,7.40
2019-03-13T02:04:54.269Z,7.40
2019-03-13T02:07:24.817Z,7.40
2019-03-13T02:09:55.419Z,7.40
2019-03-13T02:12:25.952Z,7.40
2019-03-13T02:14:56.560Z,7.40
2019-03-13T02:17:27.115Z,7.40
2019-03-13T02:19:57.682Z,7.40
2019-03-13T02:22:28.287Z,7.40
2019-03-13T02:24:58.888Z,7.40
2019-03-13T02:27:29.484Z,7.40
2019-03-13T02:30:00.012Z,7.40
2019-03-13T02:32:30.504Z,7.40
2019-03-13T02:35:01.043Z,7.40
2019-03-13T02:37:31.608Z,7.40
2019-03-13T02:40:02.121Z,7.40
2019-03-13T02:42:32.740Z,7.40
2019-03-13T02:45:03.340Z,7.40
2019-03-13T02:47:34.985Z,7.40
2019-03-13T02:50:06.219Z,7.40
2019-03-13T02:52:36.746Z,7.40
2019-03-13T02:55:07.585Z,7.50
2019-03-13T02:57:38.088Z,7.40
2019-03-13T03:00:11.032Z,7.40
2019-03-13T03:02:47.765Z,7.40
2019-03-13T03:05:18.305Z,7.40
2019-03-13T03:07:48.924Z,7.40
2019-03-13T03:10:19.468Z,7.40
2019-03-13T03:12:50.217Z,7.40
2019-03-13T03:15:20.759Z,7.40
2019-03-13T03:17:51.326Z,7.30
2019-03-13T03:20:21.893Z,7.30
2019-03-13T03:22:52.465Z,7.30
2019-03-13T03:28:05.160Z,7.40
2019-03-13T03:30:35.608Z,7.40
2019-03-13T03:33:06.346Z,7.40
2019-03-13T03:35:36.865Z,7.40
2019-03-13T03:38:07.412Z,7.40
2019-03-13T03:40:37.907Z,7.40
2019-03-13T03:43:08.392Z,7.30
2019-03-13T03:45:38.891Z,7.30
2019-03-13T03:48:09.410Z,7.20
2019-03-13T03:50:39.984Z,7.20
2019-03-13T03:53:10.602Z,7.20
2019-03-13T03:55:41.064Z,7.20
2019-03-13T03:58:11.556Z,7.20
2019-03-13T04:00:42.044Z,7.20
2019-03-13T04:03:12.589Z,7.20
2019-03-13T04:05:43.167Z,7.20
2019-03-13T04:08:13.676Z,7.20
2019-03-13T04:10:44.121Z,7.10
2019-03-13T04:13:14.786Z,7.10
2019-03-13T04:15:47.193Z,7.10
2019-03-13T04:18:18.868Z,7.20
2019-03-13T04:20:49.347Z,7.20
2019-03-13T04:23:19.883Z,7.20
2019-03-13T04:25:50.475Z,7.20
2019-03-13T04:28:20.950Z,7.20
2019-03-13T04:30:51.493Z,7.20
2019-03-13T04:33:21.987Z,7.20
2019-03-13T04:35:52.465Z,7.20
2019-03-13T04:38:23.036Z,7.20
2019-03-13T04:40:53.588Z,7.30
2019-03-13T04:43:24.084Z,7.30
2019-03-13T04:45:54.608Z,7.40
2019-03-13T04:48:25.088Z,7.40
2019-03-13T04:50:55.607Z,7.40
2019-03-13T04:53:26.103Z,7.50
2019-03-13T04:55:56.567Z,7.50
2019-03-13T04:58:27.061Z,7.50
2019-03-13T05:00:57.524Z,7.50
2019-03-13T05:03:28.014Z,7.50
2019-03-13T05:06:00.475Z,7.60
2019-03-13T05:08:45.476Z,7.50
2019-03-13T05:11:14.979Z,7.50
2019-03-13T05:13:45.539Z,7.60
2019-03-13T05:16:16.026Z,7.60
2019-03-13T05:18:46.508Z,7.50
2019-03-13T05:21:17.036Z,7.50
2019-03-13T05:23:47.605Z,7.50
2019-03-13T05:26:18.083Z,7.50
2019-03-13T05:28:48.628Z,7.50
2019-03-13T05:31:19.165Z,7.50
2019-03-13T05:33:49.651Z,7.50
2019-03-13T05:36:20.146Z,7.50
2019-03-13T05:38:50.610Z,7.50
2019-03-13T05:41:21.247Z,7.50
2019-03-13T05:43:51.827Z,7.50
2019-03-13T05:46:22.359Z,7.50
2019-03-13T05:48:52.926Z,7.50
2019-03-13T05:51:23.477Z,7.40
2019-03-13T05:53:55.043Z,7.40
2019-03-13T05:56:25.623Z,7.40
2019-03-13T05:58:56.115Z,7.40
2019-03-13T06:01:26.614Z,7.40
2019-03-13T06:03:57.133Z,7.40
2019-03-13T06:06:27.663Z,7.40
2019-03-13T06:08:58.143Z,7.40
2019-03-13T06:11:28.631Z,7.40
2019-03-13T06:13:59.152Z,7.70
2019-03-13T06:16:29.622Z,7.40
2019-03-13T06:19:00.133Z,7.50
2019-03-13T06:21:30.655Z,7.60
2019-03-13T06:24:01.164Z,7.50
2019-03-13T06:26:31.727Z,7.50
2019-03-13T06:29:02.270Z,7.50
2019-03-13T06:31:32.827Z,7.50
2019-03-13T06:34:03.309Z,7.50
2019-03-13T06:36:33.891Z,7.50
2019-03-13T06:39:05.913Z,7.50
2019-03-13T06:41:36.511Z,7.50
2019-03-13T06:44:07.075Z,7.40
2019-03-13T06:46:37.638Z,7.30
2019-03-13T06:49:08.105Z,7.30
2019-03-13T06:51:38.678Z,7.40
2019-03-13T06:54:09.214Z,7.40
2019-03-13T06:56:39.693Z,7.40
2019-03-13T06:59:31.920Z,7.50
2019-03-13T07:02:21.318Z,7.50
2019-03-13T07:08:02.213Z,7.40
2019-03-13T07:11:07.473Z,7.50
2019-03-13T07:14:08.816Z,7.50
2019-03-13T07:16:53.910Z,7.50
2019-03-13T07:19:43.400Z,7.50
2019-03-13T07:22:35.804Z,7.50
2019-03-13T07:25:19.979Z,7.50
2019-03-13T07:28:27.414Z,7.50
2019-03-13T07:31:15.347Z,7.50
2019-03-13T07:34:10.639Z,7.50
2019-03-13T07:36:58.316Z,7.60
2019-03-13T07:39:35.661Z,7.60
2019-03-13T07:42:14.240Z,7.60
2019-03-13T07:45:03.741Z,7.60
2019-03-13T07:47:42.179Z,7.70
2019-03-13T07:50:26.517Z,7.80
2019-03-13T07:53:30.882Z,7.80
2019-03-13T07:56:10.908Z,7.90
2019-03-13T07:58:59.094Z,8.00
2019-03-13T08:01:54.795Z,8.00
2019-03-13T08:04:53.240Z,7.90
2019-03-13T08:07:41.380Z,7.90
2019-03-13T08:10:33.820Z,7.80
2019-03-13T08:13:23.216Z,7.90
2019-03-13T08:16:12.662Z,7.90
2019-03-13T08:19:02.083Z,7.90
2019-03-13T08:21:51.552Z,7.90
2019-03-13T08:24:43.845Z,7.90
2019-03-13T08:27:36.339Z,7.90
2019-03-13T08:30:29.343Z,7.90
2019-03-13T08:33:27.729Z,8.00
2019-03-13T08:36:15.548Z,8.00
2019-03-13T08:39:19.796Z,8.00
2019-03-13T08:42:15.103Z,8.00
2019-03-13T08:45:13.632Z,8.00
2019-03-13T08:47:59.893Z,8.00
2019-03-13T08:50:49.400Z,8.00
2019-03-13T08:53:41.558Z,7.90
2019-03-13T08:56:33.761Z,8.00
2019-03-13T08:59:14.255Z,8.10
2019-03-13T09:01:52.974Z,8.10
2019-03-13T09:04:54.269Z,8.20
2019-03-13T09:07:37.172Z,8.20
2019-03-13T09:10:28.842Z,8.30
2019-03-13T09:13:16.640Z,8.40
2019-03-13T09:16:06.079Z,8.40
2019-03-13T09:18:41.802Z,8.30
2019-03-13T09:21:17.532Z,8.40
2019-03-13T09:24:06.956Z,8.40
2019-03-13T09:27:08.641Z,8.30
2019-03-13T09:29:53.313Z,8.50
2019-03-13T09:32:34.720Z,8.50
2019-03-13T09:35:19.420Z,8.40
2019-03-13T09:38:11.980Z,8.40
2019-03-13T09:41:09.328Z,8.30
2019-03-13T09:44:07.619Z,8.30
2019-03-13T09:46:59.791Z,8.40
2019-03-13T09:49:58.286Z,8.40
2019-03-13T09:52:42.585Z,8.50
2019-03-13T09:55:30.436Z,8.60
2019-03-13T09:58:22.626Z,8.80
2019-03-13T10:01:12.117Z,8.90
2019-03-13T10:03:51.226Z,9.00
2019-03-13T10:06:30.248Z,9.00
2019-03-13T10:09:19.684Z,9.00
2019-03-13T10:12:11.388Z,9.00
2019-03-13T10:14:59.032Z,9.00
2019-03-13T10:17:47.531Z,9.00
2019-03-13T10:20:38.820Z,8.90
2019-03-13T10:23:31.379Z,8.90
2019-03-13T10:26:19.340Z,9.20
2019-03-13T10:28:57.355Z,9.10
2019-03-13T10:31:41.151Z,9.10
2019-03-13T10:34:29.077Z,9.10
2019-03-13T10:37:21.539Z,9.30
2019-03-13T10:40:08.613Z,9.20
2019-03-13T10:43:06.768Z,9.20
2019-03-13T10:45:53.125Z,9.10
2019-03-13T10:48:46.670Z,9.10
2019-03-13T10:51:23.232Z,9.10
2019-03-13T10:54:02.898Z,9.10
2019-03-13T10:56:50.734Z,9.20
2019-03-13T10:59:55.343Z,9.30
2019-03-13T11:02:47.679Z,9.40
2019-03-13T11:05:25.705Z,9.50
2019-03-13T11:08:24.363Z,9.60
2019-03-13T11:11:03.939Z,9.60
2019-03-13T11:13:59.289Z,9.70
2019-03-13T11:17:00.964Z,9.80
2019-03-13T11:19:48.823Z,10.00
2019-03-13T11:22:36.971Z,9.90
2019-03-13T11:25:23.571Z,9.80
2019-03-13T11:28:22.017Z,9.80
2019-03-13T11:31:09.476Z,9.90
2019-03-13T11:34:10.836Z,9.70
2019-03-13T11:37:15.182Z,9.70
2019-03-13T11:40:10.439Z,9.70
2019-03-13T11:42:58.634Z,9.60
2019-03-13T11:45:39.712Z,9.50
2019-03-13T11:48:22.449Z,9.40
2019-03-13T11:51:10.128Z,9.50
2019-03-13T11:53:59.530Z,9.50
2019-03-13T11:56:52.015Z,9.60
2019-03-13T11:59:44.244Z,9.50
2019-03-13T12:02:39.592Z,9.70
2019-03-13T12:05:21.003Z,9.70
2019-03-13T12:11:08.879Z,9.80
2019-03-13T12:13:58.384Z,10.10
2019-03-13T12:16:46.437Z,10.10
2019-03-13T12:19:54.269Z,10.30
2019-03-13T12:22:34.511Z,10.30
2019-03-13T12:25:24.305Z,10.10
2019-03-13T12:28:12.194Z,10.10
2019-03-13T12:31:00.359Z,10.00
2019-03-13T12:33:55.511Z,10.00
2019-03-13T12:36:43.682Z,10.00
2019-03-13T12:39:39.105Z,10.00
2019-03-13T12:42:28.671Z,10.00
2019-03-13T12:45:07.720Z,10.10
2019-03-13T12:47:57.184Z,10.10
2019-03-13T12:50:52.661Z,9.90
2019-03-13T12:53:42.113Z,10.10
2019-03-13T12:56:43.404Z,10.40
2019-03-13T12:59:38.541Z,10.60
2019-03-13T13:02:22.580Z,10.50
2019-03-13T13:05:14.861Z,10.50
2019-03-13T13:11:28.676Z,10.80
2019-03-13T13:14:15.384Z,10.70
2019-03-13T13:17:01.601Z,10.60
2019-03-13T13:19:32.143Z,10.50
2019-03-13T13:22:02.626Z,10.40
2019-03-13T13:24:33.272Z,10.50
2019-03-13T13:27:03.971Z,10.40
2019-03-13T13:29:34.643Z,10.40
2019-03-13T13:32:05.200Z,10.20
2019-03-13T13:34:35.695Z,10.10
2019-03-13T13:37:06.215Z,10.10
2019-03-13T13:39:36.710Z,10.00
2019-03-13T13:42:07.200Z,10.00
2019-03-13T13:44:37.793Z,10.10
2019-03-13T13:47:08.247Z,10.10
2019-03-13T13:49:38.736Z,10.10
2019-03-13T13:52:09.275Z,10.20
2019-03-13T13:54:40.821Z,10.30
2019-03-13T13:57:11.415Z,10.30
2019-03-13T13:59:41.879Z,10.20
2019-03-13T14:02:12.415Z,10.20
2019-03-13T14:04:42.923Z,10.30
2019-03-13T14:07:13.478Z,10.30
2019-03-13T14:09:43.995Z,10.30
2019-03-13T14:12:14.523Z,10.50
2019-03-13T14:14:45.041Z,10.60
2019-03-13T14:17:15.529Z,10.70
2019-03-13T14:19:46.083Z,10.60
2019-03-13T14:22:16.585Z,10.50
2019-03-13T14:24:47.091Z,11.10
2019-03-13T14:30:08.035Z,10.90
2019-03-13T14:32:38.660Z,10.80
2019-03-13T14:35:09.396Z,11.00
2019-03-13T14:37:39.963Z,10.90
2019-03-13T14:40:10.816Z,10.70
2019-03-13T14:42:41.419Z,10.80
2019-03-13T14:45:12.169Z,10.80
2019-03-13T14:47:42.727Z,10.70
2019-03-13T14:50:13.561Z,10.60
2019-03-13T14:52:44.097Z,10.40
2019-03-13T14:55:14.800Z,10.30
2019-03-13T14:57:45.372Z,10.30
2019-03-13T15:00:16.905Z,10.30
2019-03-13T15:02:47.497Z,10.30
2019-03-13T15:05:18.036Z,10.40
2019-03-13T15:07:48.627Z,10.40
2019-03-13T15:10:19.221Z,10.40
2019-03-13T15:12:49.812Z,10.40
2019-03-13T15:15:21.440Z,10.30
2019-03-13T15:17:53.288Z,10.50
2019-03-13T15:20:24.295Z,10.60
2019-03-13T15:22:54.817Z,10.30
2019-03-13T15:25:26.484Z,10.30
2019-03-13T15:27:57.000Z,10.40
2019-03-13T15:30:27.569Z,10.40
2019-03-13T15:32:58.081Z,10.30
2019-03-13T15:35:28.612Z,10.30
2019-03-13T15:37:59.167Z,10.90
2019-03-13T15:40:30.339Z,10.30
2019-03-13T15:43:00.878Z,10.30
2019-03-13T15:45:31.496Z,10.30
2019-03-13T15:48:02.024Z,10.30
2019-03-13T15:50:32.609Z,10.30
2019-03-13T15:53:03.098Z,10.30
2019-03-13T15:55:33.684Z,10.30
2019-03-13T15:58:04.380Z,10.30
2019-03-13T16:00:34.938Z,10.30
2019-03-13T16:03:05.550Z,10.30
2019-03-13T16:05:36.058Z,10.30
2019-03-13T16:08:06.525Z,10.30
2019-03-13T16:10:37.132Z,10.40
2019-03-13T16:13:07.615Z,10.50
2019-03-13T16:15:38.617Z,10.90
2019-03-13T16:18:09.174Z,11.00
2019-03-13T16:20:39.689Z,11.10
2019-03-13T16:23:10.257Z,11.00
2019-03-13T16:25:40.808Z,10.80
2019-03-13T16:28:11.413Z,10.60
2019-03-13T16:30:43.176Z,10.70
2019-03-13T16:33:13.739Z,10.60
2019-03-13T16:35:44.220Z,10.50
2019-03-13T16:38:14.768Z,10.40
2019-03-13T16:40:45.276Z,10.30
2019-03-13T16:43:15.850Z,10.40
2019-03-13T16:45:46.330Z,10.30
2019-03-13T16:48:16.918Z,10.30
2019-03-13T16:50:47.448Z,10.20
2019-03-13T16:53:19.011Z,10.10
2019-03-13T16:55:49.581Z,10.10
2019-03-13T16:58:20.169Z,10.10
2019-03-13T17:00:50.930Z,10.10
2019-03-13T17:03:21.479Z,10.00
2019-03-13T17:05:52.013Z,9.90
2019-03-13T17:08:22.508Z,9.90
2019-03-13T17:10:52.981Z,9.80
2019-03-13T17:13:24.550Z,9.60
2019-03-13T17:15:55.211Z,9.50
2019-03-13T17:18:25.775Z,9.30
2019-03-13T17:20:56.384Z,9.30
2019-03-13T17:23:26.974Z,9.30
2019-03-13T17:25:57.545Z,9.20
2019-03-13T17:28:29.104Z,9.20
2019-03-13T17:30:59.684Z,9.30
2019-03-13T17:33:30.297Z,9.30
2019-03-13T17:36:00.916Z,9.20
2019-03-13T17:38:31.582Z,9.20
2019-03-13T17:41:02.101Z,9.10
2019-03-13T17:43:38.949Z,9.00
2019-03-13T17:46:07.175Z,9.00
2019-03-13T17:48:37.114Z,9.00
2019-03-13T17:51:07.669Z,8.90
2019-03-13T17:53:39.238Z,8.80
2019-03-13T17:56:09.831Z,8.80
2019-03-13T17:58:40.374Z,8.80
2019-03-13T18:01:10.958Z,8.70
2019-03-13T18:03:41.582Z,8.70
2019-03-13T18:06:12.101Z,8.70
2019-03-13T18:08:42.667Z,8.60
2019-03-13T18:11:13.208Z,8.50
2019-03-13T18:13:43.835Z,8.50
2019-03-13T18:16:14.419Z,8.40
2019-03-13T18:18:44.953Z,8.40
2019-03-13T18:21:15.631Z,8.40
2019-03-13T18:23:46.204Z,8.40
2019-03-13T18:26:16.752Z,8.30
2019-03-13T18:28:47.289Z,8.40
2019-03-13T18:31:17.914Z,8.30
2019-03-13T18:33:48.374Z,8.30
2019-03-13T18:36:18.924Z,8.30
2019-03-13T18:38:49.512Z,8.20
2019-03-13T18:41:23.126Z,8.20
2019-03-13T18:43:52.402Z,8.20
2019-03-13T18:46:22.981Z,8.20
2019-03-13T18:48:53.492Z,8.20
2019-03-13T18:51:24.004Z,8.00
2019-03-13T18:53:54.623Z,8.10
2019-03-13T18:56:25.103Z,8.00
2019-03-13T18:58:56.585Z,8.00
2019-03-13T19:01:27.067Z,8.00
2019-03-13T19:03:57.645Z,8.00
2019-03-13T19:06:28.096Z,7.90
2019-03-13T19:08:58.558Z,7.90
2019-03-13T19:11:29.070Z,7.80
2019-03-13T19:13:59.547Z,7.80
2019-03-13T19:16:30.011Z,7.80
2019-03-13T19:19:00.569Z,7.90
2019-03-13T19:21:31.075Z,7.90
2019-03-13T19:24:02.765Z,7.90
2019-03-13T19:26:33.440Z,7.90
2019-03-13T19:29:03.919Z,7.90
2019-03-13T19:31:34.481Z,7.90
2019-03-13T19:34:04.995Z,8.00
2019-03-13T19:36:35.555Z,8.00
2019-03-13T19:39:06.732Z,8.00
2019-03-13T19:41:38.268Z,7.90
2019-03-13T19:44:08.835Z,8.00
2019-03-13T19:46:39.359Z,7.90
2019-03-13T19:49:09.928Z,7.90
2019-03-13T19:54:07.879Z,7.90
2019-03-13T19:56:38.526Z,8.00
2019-03-13T19:59:09.364Z,8.10
2019-03-13T20:01:40.337Z,8.10
2019-03-13T20:04:12.192Z,8.10
2019-03-13T20:06:42.790Z,8.10
2019-03-13T20:09:13.525Z,8.10
2019-03-13T20:11:44.173Z,8.10
2019-03-13T20:14:14.765Z,8.10
2019-03-13T20:16:46.629Z,8.00
2019-03-13T20:19:17.693Z,8.00
2019-03-13T20:21:48.427Z,8.00
2019-03-13T20:24:19.168Z,7.90
2019-03-13T20:26:50.011Z,8.00
2019-03-13T20:29:20.633Z,8.00
2019-03-13T20:31:51.353Z,8.00
2019-03-13T20:34:22.077Z,8.00
2019-03-13T20:36:52.758Z,8.00
2019-03-13T20:39:23.536Z,7.90
2019-03-13T20:41:54.519Z,8.00
2019-03-13T20:44:25.432Z,8.00
2019-03-13T20:46:56.010Z,8.00
2019-03-13T20:49:27.473Z,8.00
2019-03-13T20:51:58.515Z,7.90
2019-03-13T20:54:29.333Z,7.90
2019-03-13T20:57:00.185Z,7.90
2019-03-13T20:59:32.616Z,7.90
2019-03-13T21:02:03.769Z,7.90
2019-03-13T21:04:37.948Z,7.90
2019-03-13T21:07:09.165Z,7.90
2019-03-13T21:09:40.138Z,7.90
2019-03-13T21:12:11.073Z,7.90
2019-03-13T21:14:41.823Z,7.80
2019-03-13T21:17:12.547Z,7.80
2019-03-13T21:19:43.283Z,7.80
2019-03-13T21:22:13.920Z,7.80
2019-03-13T21:24:44.907Z,7.90
2019-03-13T21:27:15.742Z,7.80
2019-03-13T21:29:46.491Z,7.80
2019-03-13T21:32:17.199Z,7.90
2019-03-13T21:34:49.437Z,7.90
2019-03-13T21:37:20.162Z,7.90
2019-03-13T21:39:50.876Z,7.90
2019-03-13T21:42:21.729Z,8.00
2019-03-13T21:44:52.552Z,8.00
2019-03-13T21:47:23.391Z,8.00
2019-03-13T21:49:54.237Z,8.00
2019-03-13T21:52:25.892Z,8.00
2019-03-13T21:54:57.013Z,8.00
2019-03-13T21:57:29.219Z,8.10
2019-03-13T21:59:59.958Z,8.10
2019-03-13T22:02:35.388Z,8.10
2019-03-13T22:05:05.166Z,8.10
2019-03-13T22:07:36.138Z,8.10
2019-03-13T22:10:07.615Z,8.10
2019-03-13T22:12:38.408Z,8.20
2019-03-13T22:15:09.744Z,8.20
2019-03-13T22:17:40.367Z,8.20
2019-03-13T22:20:13.121Z,8.20
2019-03-13T22:22:44.134Z,8.30
2019-03-13T22:25:23.284Z,8.30
2019-03-13T22:27:54.449Z,8.30
2019-03-13T22:30:29.157Z,8.30
2019-03-13T22:33:00.145Z,8.30
2019-03-13T22:35:30.881Z,8.20
2019-03-13T22:38:01.877Z,8.20
2019-03-13T22:40:32.833Z,8.20
2019-03-13T22:43:03.695Z,8.20
2019-03-13T22:45:34.619Z,8.20
2019-03-13T22:48:05.380Z,8.10
2019-03-13T22:50:36.344Z,8.10
2019-03-13T22:53:07.020Z,8.20
2019-03-13T22:55:39.989Z,8.20
2019-03-13T22:58:10.183Z,8.10
2019-03-13T23:01:02.438Z,8.00
2019-03-13T23:03:40.740Z,8.00
2019-03-13T23:06:11.841Z,8.00
2019-03-13T23:08:42.720Z,8.00
2019-03-13T23:11:13.685Z,8.00
2019-03-13T23:13:44.735Z,8.00
2019-03-13T23:16:15.477Z,8.00
2019-03-13T23:18:46.401Z,7.90
2019-03-13T23:21:17.074Z,7.90
2019-03-13T23:23:47.796Z,7.90
2019-03-13T23:26:18.695Z,7.90
2019-03-13T23:28:49.376Z,7.90
2019-03-13T23:31:20.181Z,7.90
2019-03-13T23:33:51.110Z,7.90
2019-03-13T23:36:22.764Z,7.90
2019-03-13T23:38:54.692Z,8.00
2019-03-13T23:41:28.056Z,7.90
2019-03-13T23:43:58.892Z,7.90
2019-03-13T23:46:29.517Z,7.90
2019-03-13T23:49:01.582Z,7.90
2019-03-13T23:51:32.164Z,7.90
2019-03-13T23:54:02.970Z,7.90
2019-03-13T23:56:33.821Z,7.90
2019-03-13T23:59:04.577Z,7.90
